TUI5HJ EDDL-LEPA
Flight info
| Callsign | TUI5HJ |
|---|---|
| Flight time | 2h 4m |
| Altitude | 35000 |
| Route | MODRU2T MODRU Z283 SOPOK DCT ROUSY DCT GTQ DCT POGOL DCT LASAT DCT MOROK DCT GILIR DCT GEVEA DCT INCUS DCT BALSI DCT RETNO DCT TUPOX DCT MTG DCT DIVKO DCT VATIR DCT PIVUS DCT BODEQ DCT VERSO DCT LUNIK |
| Aircraft | B738/M-SDE2E3FGHIRWXY/LB1 |
Departure
| Time | 2026-05-04 07:53 |
|---|---|
| Airport | Düsseldorf Airport (EDDL) |
Arrival
| Time | 2026-05-04 09:57 |
|---|---|
| Airport | Palma de Mallorca Airport (LEPA) |
| Time | Latitude | Longitude | Altitude | Speed | Heading |
|---|---|---|---|---|---|
| 2026-05-04 07:29 | 51.27564 | 6.75765 | 130 ft | 0 kts | 249° |
| 2026-05-04 07:40 | 51.27570 | 6.75790 | 126 ft | 4 kts | 258° |
| 2026-05-04 07:40 | 51.27571 | 6.75832 | 126 ft | 4 kts | 282° |
| 2026-05-04 07:41 | 51.27561 | 6.75869 | 126 ft | 4 kts | 313° |
| 2026-05-04 07:41 | 51.27549 | 6.75885 | 124 ft | 0 kts | 333° |
| 2026-05-04 07:43 | 51.27551 | 6.75883 | 124 ft | 1 kts | 333° |
| 2026-05-04 07:43 | 51.27570 | 6.75869 | 125 ft | 5 kts | 333° |
| 2026-05-04 07:43 | 51.27616 | 6.75832 | 128 ft | 9 kts | 334° |
| 2026-05-04 07:43 | 51.27692 | 6.75811 | 129 ft | 13 kts | 1° |
| 2026-05-04 07:44 | 51.27796 | 6.75814 | 128 ft | 16 kts | 1° |
| 2026-05-04 07:44 | 51.27905 | 6.75819 | 127 ft | 15 kts | 1° |
| 2026-05-04 07:44 | 51.28011 | 6.75825 | 126 ft | 15 kts | 9° |
| 2026-05-04 07:44 | 51.28086 | 6.75930 | 125 ft | 15 kts | 53° |
| 2026-05-04 07:45 | 51.28153 | 6.76073 | 126 ft | 18 kts | 52° |
| 2026-05-04 07:45 | 51.28245 | 6.76267 | 126 ft | 26 kts | 52° |
| 2026-05-04 07:45 | 51.28370 | 6.76527 | 125 ft | 32 kts | 53° |
| 2026-05-04 07:45 | 51.28488 | 6.76775 | 123 ft | 25 kts | 52° |
| 2026-05-04 07:46 | 51.28589 | 6.76985 | 124 ft | 23 kts | 53° |
| 2026-05-04 07:46 | 51.28684 | 6.77187 | 127 ft | 22 kts | 53° |
| 2026-05-04 07:46 | 51.28778 | 6.77383 | 125 ft | 22 kts | 53° |
| 2026-05-04 07:46 | 51.28868 | 6.77573 | 126 ft | 21 kts | 52° |
| 2026-05-04 07:47 | 51.28956 | 6.77757 | 127 ft | 21 kts | 52° |
| 2026-05-04 07:47 | 51.29041 | 6.77935 | 129 ft | 20 kts | 53° |
| 2026-05-04 07:47 | 51.29122 | 6.78107 | 132 ft | 19 kts | 52° |
| 2026-05-04 07:49 | 51.29395 | 6.78571 | 151 ft | 0 kts | 358° |
| 2026-05-04 07:51 | 51.29402 | 6.78571 | 151 ft | 4 kts | 358° |
| 2026-05-04 07:51 | 51.29466 | 6.78563 | 151 ft | 15 kts | 354° |
| 2026-05-04 07:52 | 51.29493 | 6.78414 | 148 ft | 24 kts | 234° |
| 2026-05-04 07:52 | 51.29235 | 6.77873 | 133 ft | 101 kts | 233° |
| 2026-05-04 07:52 | 51.28886 | 6.77141 | 125 ft | 147 kts | 233° |
| 2026-05-04 07:52 | 51.28158 | 6.75609 | 376 ft | 188 kts | 232° |
| 2026-05-04 07:53 | 51.27369 | 6.73891 | 1340 ft | 193 kts | 233° |
| 2026-05-04 07:54 | 51.25559 | 6.60048 | 5118 ft | 246 kts | 319° |
| 2026-05-04 07:55 | 51.26914 | 6.58359 | 5132 ft | 244 kts | 321° |
| 2026-05-04 07:55 | 51.28259 | 6.56717 | 5489 ft | 252 kts | 321° |
| 2026-05-04 07:55 | 51.29702 | 6.54931 | 5990 ft | 267 kts | 320° |
| 2026-05-04 07:55 | 51.31173 | 6.53089 | 6760 ft | 271 kts | 320° |
| 2026-05-04 07:56 | 51.32659 | 6.51205 | 7551 ft | 273 kts | 319° |
| 2026-05-04 07:56 | 51.34152 | 6.49298 | 8357 ft | 276 kts | 319° |
| 2026-05-04 07:56 | 51.35656 | 6.47368 | 9153 ft | 278 kts | 319° |
| 2026-05-04 07:56 | 51.37155 | 6.45441 | 9952 ft | 281 kts | 318° |
| 2026-05-04 07:57 | 51.38511 | 6.43209 | 10602 ft | 280 kts | 297° |
| 2026-05-04 07:57 | 51.39096 | 6.40283 | 11318 ft | 277 kts | 271° |
| 2026-05-04 07:57 | 51.38835 | 6.37257 | 12061 ft | 275 kts | 249° |
| 2026-05-04 07:57 | 51.37873 | 6.34616 | 12792 ft | 278 kts | 229° |
| 2026-05-04 07:58 | 51.36484 | 6.32460 | 13561 ft | 279 kts | 223° |
| 2026-05-04 07:58 | 51.35036 | 6.30360 | 14234 ft | 282 kts | 223° |
| 2026-05-04 07:58 | 51.33571 | 6.28233 | 14835 ft | 287 kts | 222° |
| 2026-05-04 07:58 | 51.31874 | 6.26484 | 15318 ft | 299 kts | 205° |
| 2026-05-04 07:59 | 51.29861 | 6.25232 | 15468 ft | 320 kts | 202° |
| 2026-05-04 07:59 | 51.27730 | 6.24017 | 15610 ft | 339 kts | 201° |
| 2026-05-04 07:59 | 51.25411 | 6.22712 | 15749 ft | 358 kts | 201° |
| 2026-05-04 07:59 | 51.23042 | 6.21367 | 15871 ft | 375 kts | 201° |
| 2026-05-04 08:00 | 51.20543 | 6.19935 | 16110 ft | 387 kts | 201° |
| 2026-05-04 08:00 | 51.17991 | 6.18461 | 16617 ft | 391 kts | 201° |
| 2026-05-04 08:00 | 51.15421 | 6.16970 | 17207 ft | 394 kts | 201° |
| 2026-05-04 08:02 | 50.97454 | 6.04874 | 20916 ft | 404 kts | 214° |
| 2026-05-04 08:02 | 50.95103 | 6.02420 | 21390 ft | 406 kts | 213° |
| 2026-05-04 08:02 | 50.92678 | 6.00100 | 21838 ft | 408 kts | 210° |
| 2026-05-04 08:03 | 50.90164 | 5.97982 | 22301 ft | 409 kts | 208° |
| 2026-05-04 08:03 | 50.87663 | 5.95942 | 22756 ft | 410 kts | 208° |
| 2026-05-04 08:03 | 50.85125 | 5.93843 | 23227 ft | 411 kts | 208° |
| 2026-05-04 08:03 | 50.82594 | 5.91722 | 23652 ft | 413 kts | 209° |
| 2026-05-04 08:04 | 50.80064 | 5.89557 | 23998 ft | 414 kts | 209° |
| 2026-05-04 08:04 | 50.77529 | 5.87369 | 24300 ft | 417 kts | 209° |
| 2026-05-04 08:04 | 50.74966 | 5.85155 | 24606 ft | 419 kts | 210° |
| 2026-05-04 08:04 | 50.72402 | 5.82931 | 24945 ft | 421 kts | 210° |
| 2026-05-04 08:05 | 50.69831 | 5.80700 | 25285 ft | 422 kts | 210° |
| 2026-05-04 08:05 | 50.67256 | 5.78468 | 25600 ft | 423 kts | 210° |
| 2026-05-04 08:05 | 50.64665 | 5.76229 | 25896 ft | 425 kts | 210° |
| 2026-05-04 08:05 | 50.62072 | 5.74086 | 26188 ft | 428 kts | 205° |
| 2026-05-04 08:06 | 50.59193 | 5.72622 | 26481 ft | 432 kts | 195° |
| 2026-05-04 08:06 | 50.56250 | 5.71896 | 26792 ft | 436 kts | 188° |
| 2026-05-04 08:06 | 50.53199 | 5.71881 | 27080 ft | 442 kts | 178° |
| 2026-05-04 08:06 | 50.50147 | 5.72476 | 27483 ft | 442 kts | 176° |
| 2026-05-04 08:08 | 50.29000 | 5.76695 | 30274 ft | 433 kts | 178° |
| 2026-05-04 08:08 | 50.26008 | 5.77276 | 30554 ft | 434 kts | 176° |
| 2026-05-04 08:10 | 50.02587 | 5.87486 | 32900 ft | 434 kts | 169° |
| 2026-05-04 08:11 | 49.99687 | 5.88767 | 33193 ft | 433 kts | 169° |
| 2026-05-04 08:11 | 49.93892 | 5.91320 | 33789 ft | 431 kts | 169° |
| 2026-05-04 08:11 | 49.91005 | 5.92589 | 34080 ft | 430 kts | 169° |
| 2026-05-04 08:12 | 49.88165 | 5.93837 | 34301 ft | 430 kts | 169° |
| 2026-05-04 08:12 | 49.85280 | 5.95102 | 34483 ft | 430 kts | 169° |
| 2026-05-04 08:12 | 49.82406 | 5.96362 | 34678 ft | 430 kts | 169° |
| 2026-05-04 08:12 | 49.79521 | 5.97625 | 34912 ft | 429 kts | 169° |
| 2026-05-04 08:13 | 49.73743 | 6.00148 | 35008 ft | 433 kts | 169° |
| 2026-05-04 08:13 | 49.67954 | 6.02674 | 35007 ft | 429 kts | 169° |
| 2026-05-04 08:14 | 49.62228 | 6.05166 | 35020 ft | 426 kts | 169° |
| 2026-05-04 08:16 | 49.40772 | 6.19783 | 35014 ft | 439 kts | 146° |
| 2026-05-04 08:16 | 49.36034 | 6.25758 | 35017 ft | 441 kts | 146° |
| 2026-05-04 08:17 | 49.31253 | 6.31709 | 35018 ft | 443 kts | 147° |
| 2026-05-04 08:17 | 49.26438 | 6.37641 | 35024 ft | 445 kts | 147° |
| 2026-05-04 08:19 | 49.07051 | 6.61342 | 35019 ft | 448 kts | 147° |
| 2026-05-04 08:20 | 49.02169 | 6.67257 | 35019 ft | 446 kts | 149° |
| 2026-05-04 08:20 | 48.99525 | 6.69613 | 35025 ft | 435 kts | 162° |
| 2026-05-04 08:20 | 48.96664 | 6.71020 | 35024 ft | 429 kts | 173° |
| 2026-05-04 08:21 | 48.93729 | 6.71563 | 35022 ft | 421 kts | 184° |
| 2026-05-04 08:21 | 48.90810 | 6.71441 | 35034 ft | 420 kts | 186° |
| 2026-05-04 08:21 | 48.84962 | 6.71113 | 35027 ft | 420 kts | 185° |
| 2026-05-04 08:22 | 48.79121 | 6.70833 | 35022 ft | 420 kts | 185° |
| 2026-05-04 08:24 | 48.55720 | 6.69912 | 35023 ft | 421 kts | 185° |
| 2026-05-04 08:24 | 48.49849 | 6.69685 | 35029 ft | 421 kts | 185° |
| 2026-05-04 08:25 | 48.44016 | 6.69459 | 35019 ft | 422 kts | 185° |
| 2026-05-04 08:25 | 48.38142 | 6.69233 | 35031 ft | 422 kts | 185° |
| 2026-05-04 08:27 | 48.14633 | 6.68353 | 35032 ft | 422 kts | 185° |
| 2026-05-04 08:28 | 48.08800 | 6.68136 | 35033 ft | 422 kts | 185° |
| 2026-05-04 08:28 | 48.02925 | 6.67918 | 35038 ft | 421 kts | 185° |
| 2026-05-04 08:29 | 47.97063 | 6.67701 | 35042 ft | 421 kts | 185° |
| 2026-05-04 08:31 | 47.73642 | 6.66838 | 35039 ft | 421 kts | 185° |
| 2026-05-04 08:33 | 47.50152 | 6.65980 | 35048 ft | 422 kts | 185° |
| 2026-05-04 08:35 | 47.31837 | 6.55865 | 35053 ft | 414 kts | 221° |
| 2026-05-04 08:35 | 47.29666 | 6.53082 | 35049 ft | 415 kts | 221° |
| 2026-05-04 08:35 | 47.25305 | 6.47557 | 35050 ft | 415 kts | 220° |
| 2026-05-04 08:37 | 47.09880 | 6.28354 | 35045 ft | 414 kts | 218° |
| 2026-05-04 08:37 | 47.07458 | 6.26075 | 35044 ft | 415 kts | 207° |
| 2026-05-04 08:38 | 47.04801 | 6.24406 | 35058 ft | 416 kts | 201° |
| 2026-05-04 08:38 | 47.00087 | 6.22928 | 35058 ft | 420 kts | 188° |
| 2026-05-04 08:40 | 46.76820 | 6.19974 | 35037 ft | 418 kts | 188° |
| 2026-05-04 08:41 | 46.70081 | 6.19078 | 35045 ft | 418 kts | 188° |
| 2026-05-04 08:41 | 46.65262 | 6.18438 | 35039 ft | 418 kts | 188° |
| 2026-05-04 08:42 | 46.59462 | 6.17671 | 35049 ft | 418 kts | 188° |
| 2026-05-04 08:42 | 46.53652 | 6.16904 | 35037 ft | 419 kts | 188° |
| 2026-05-04 08:43 | 46.47844 | 6.16140 | 35047 ft | 419 kts | 188° |
| 2026-05-04 08:43 | 46.42032 | 6.15376 | 35046 ft | 420 kts | 188° |
| 2026-05-04 08:44 | 46.36244 | 6.14618 | 35049 ft | 420 kts | 188° |
| 2026-05-04 08:46 | 46.13057 | 6.10492 | 35048 ft | 420 kts | 192° |
| 2026-05-04 08:46 | 46.07279 | 6.09191 | 35047 ft | 420 kts | 191° |
| 2026-05-04 08:47 | 46.01502 | 6.07914 | 35047 ft | 420 kts | 191° |
| 2026-05-04 08:47 | 45.95724 | 6.06644 | 35043 ft | 420 kts | 191° |
| 2026-05-04 08:48 | 45.89972 | 6.05381 | 35045 ft | 419 kts | 191° |
| 2026-05-04 08:48 | 45.84203 | 6.04116 | 35047 ft | 419 kts | 191° |
| 2026-05-04 08:49 | 45.78441 | 6.02846 | 35052 ft | 418 kts | 191° |
| 2026-05-04 08:50 | 45.58372 | 5.98433 | 35051 ft | 417 kts | 191° |
| 2026-05-04 08:51 | 45.52630 | 5.97176 | 35042 ft | 417 kts | 191° |
| 2026-05-04 08:51 | 45.46880 | 5.95881 | 35042 ft | 416 kts | 193° |
| 2026-05-04 08:52 | 45.41250 | 5.94163 | 35051 ft | 415 kts | 194° |
| 2026-05-04 08:52 | 45.35610 | 5.92358 | 35044 ft | 416 kts | 194° |
| 2026-05-04 08:54 | 45.12849 | 5.85252 | 35057 ft | 421 kts | 194° |
| 2026-05-04 08:55 | 45.07147 | 5.83491 | 35058 ft | 422 kts | 194° |
| 2026-05-04 08:55 | 45.01399 | 5.81717 | 35051 ft | 422 kts | 194° |
| 2026-05-04 09:01 | 44.41257 | 5.63383 | 35089 ft | 423 kts | 195° |
| 2026-05-04 09:01 | 44.35601 | 5.61192 | 35083 ft | 420 kts | 204° |
| 2026-05-04 09:02 | 44.30165 | 5.58152 | 35082 ft | 421 kts | 204° |
| 2026-05-04 09:02 | 44.24726 | 5.55119 | 35088 ft | 421 kts | 204° |
| 2026-05-04 09:03 | 44.19306 | 5.52136 | 35073 ft | 421 kts | 204° |
| 2026-05-04 09:03 | 44.13852 | 5.49154 | 35089 ft | 421 kts | 204° |
| 2026-05-04 09:04 | 44.08378 | 5.46167 | 35069 ft | 423 kts | 204° |
| 2026-05-04 09:04 | 44.02891 | 5.43178 | 35066 ft | 422 kts | 204° |
| 2026-05-04 09:05 | 43.97418 | 5.40203 | 35069 ft | 422 kts | 204° |
| 2026-05-04 09:05 | 43.91939 | 5.37240 | 35050 ft | 423 kts | 205° |
| 2026-05-04 09:06 | 43.86454 | 5.34283 | 35048 ft | 423 kts | 205° |
| 2026-05-04 09:08 | 43.64694 | 5.22599 | 35013 ft | 417 kts | 205° |
| 2026-05-04 09:08 | 43.59294 | 5.19713 | 35033 ft | 416 kts | 205° |
| 2026-05-04 09:09 | 43.53895 | 5.16832 | 35029 ft | 416 kts | 205° |
| 2026-05-04 09:09 | 43.48504 | 5.13961 | 35024 ft | 415 kts | 205° |
| 2026-05-04 09:10 | 43.43119 | 5.11099 | 35025 ft | 414 kts | 205° |
| 2026-05-04 09:10 | 43.37882 | 5.08023 | 35013 ft | 410 kts | 212° |
| 2026-05-04 09:11 | 43.33173 | 5.03651 | 35030 ft | 408 kts | 217° |
| 2026-05-04 09:11 | 43.28502 | 4.99193 | 35030 ft | 409 kts | 217° |
| 2026-05-04 09:12 | 43.23814 | 4.94765 | 35017 ft | 410 kts | 217° |
| 2026-05-04 09:14 | 43.04976 | 4.77185 | 35010 ft | 411 kts | 213° |
| 2026-05-04 09:14 | 42.99976 | 4.73358 | 35006 ft | 412 kts | 212° |
| 2026-05-04 09:15 | 42.94944 | 4.69593 | 35008 ft | 412 kts | 212° |
| 2026-05-04 09:15 | 42.89915 | 4.65815 | 35007 ft | 412 kts | 212° |
| 2026-05-04 09:17 | 42.67389 | 4.48871 | 34999 ft | 411 kts | 212° |
| 2026-05-04 09:18 | 42.62380 | 4.45121 | 35004 ft | 411 kts | 212° |
| 2026-05-04 09:18 | 42.57377 | 4.41382 | 34989 ft | 410 kts | 212° |
| 2026-05-04 09:19 | 42.52374 | 4.37650 | 34992 ft | 409 kts | 212° |
| 2026-05-04 09:19 | 42.47417 | 4.33959 | 35006 ft | 410 kts | 212° |
| 2026-05-04 09:20 | 42.42416 | 4.30242 | 34995 ft | 410 kts | 212° |
| 2026-05-04 09:20 | 42.37409 | 4.26528 | 34987 ft | 409 kts | 212° |
| 2026-05-04 09:21 | 42.32404 | 4.22821 | 34988 ft | 409 kts | 212° |
| 2026-05-04 09:21 | 42.27414 | 4.19133 | 34985 ft | 409 kts | 212° |
| 2026-05-04 09:22 | 42.22459 | 4.15475 | 34984 ft | 408 kts | 212° |
| 2026-05-04 09:22 | 42.17473 | 4.11803 | 34980 ft | 408 kts | 212° |
| 2026-05-04 09:23 | 42.12495 | 4.08141 | 34988 ft | 407 kts | 212° |
| 2026-05-04 09:23 | 42.07528 | 4.04489 | 34985 ft | 406 kts | 212° |
| 2026-05-04 09:25 | 41.89850 | 3.92735 | 34983 ft | 413 kts | 197° |
| 2026-05-04 09:25 | 41.87007 | 3.92057 | 34984 ft | 414 kts | 195° |
| 2026-05-04 09:26 | 41.81351 | 3.90797 | 34980 ft | 414 kts | 195° |
| 2026-05-04 09:26 | 41.75669 | 3.89500 | 34984 ft | 413 kts | 196° |
| 2026-05-04 09:27 | 41.70959 | 3.88407 | 34975 ft | 413 kts | 196° |
| 2026-05-04 09:27 | 41.65303 | 3.87091 | 34988 ft | 412 kts | 196° |
| 2026-05-04 09:28 | 41.59645 | 3.85780 | 34986 ft | 412 kts | 196° |
| 2026-05-04 09:28 | 41.53989 | 3.84486 | 34981 ft | 413 kts | 196° |
| 2026-05-04 09:29 | 41.48325 | 3.83196 | 34987 ft | 412 kts | 196° |
| 2026-05-04 09:29 | 41.42712 | 3.81918 | 34985 ft | 412 kts | 196° |
| 2026-05-04 09:30 | 41.37065 | 3.80633 | 34988 ft | 411 kts | 196° |
| 2026-05-04 09:30 | 41.31427 | 3.79352 | 34989 ft | 411 kts | 196° |
| 2026-05-04 09:31 | 41.25796 | 3.78075 | 34992 ft | 410 kts | 196° |
| 2026-05-04 09:31 | 41.20167 | 3.76801 | 34991 ft | 410 kts | 196° |
| 2026-05-04 09:32 | 41.14584 | 3.75344 | 34988 ft | 405 kts | 203° |
| 2026-05-04 09:34 | 40.96259 | 3.65873 | 32376 ft | 407 kts | 206° |
| 2026-05-04 09:34 | 40.93624 | 3.64517 | 31650 ft | 407 kts | 206° |
| 2026-05-04 09:34 | 40.90973 | 3.63155 | 30901 ft | 409 kts | 206° |
| 2026-05-04 09:34 | 40.88319 | 3.61792 | 30145 ft | 410 kts | 206° |
| 2026-05-04 09:35 | 40.85650 | 3.60422 | 29248 ft | 412 kts | 205° |
| 2026-05-04 09:35 | 40.82975 | 3.59051 | 28604 ft | 409 kts | 205° |
| 2026-05-04 09:35 | 40.80331 | 3.57700 | 27970 ft | 405 kts | 205° |
| 2026-05-04 09:35 | 40.77719 | 3.56365 | 27411 ft | 401 kts | 205° |
| 2026-05-04 09:37 | 40.59976 | 3.47311 | 23523 ft | 383 kts | 205° |
| 2026-05-04 09:37 | 40.57492 | 3.46047 | 22901 ft | 382 kts | 205° |
| 2026-05-04 09:38 | 40.55023 | 3.44793 | 22325 ft | 379 kts | 205° |
| 2026-05-04 09:38 | 40.52600 | 3.43562 | 21779 ft | 376 kts | 205° |
| 2026-05-04 09:38 | 40.50164 | 3.42325 | 21243 ft | 373 kts | 205° |
| 2026-05-04 09:38 | 40.47747 | 3.41100 | 20709 ft | 371 kts | 205° |
| 2026-05-04 09:39 | 40.45342 | 3.39892 | 20192 ft | 369 kts | 202° |
| 2026-05-04 09:39 | 40.42813 | 3.39203 | 19535 ft | 378 kts | 187° |
| 2026-05-04 09:39 | 40.40132 | 3.39253 | 18623 ft | 390 kts | 182° |
| 2026-05-04 09:39 | 40.37402 | 3.39441 | 17946 ft | 392 kts | 181° |
| 2026-05-04 09:40 | 40.34684 | 3.39651 | 17337 ft | 389 kts | 180° |
| 2026-05-04 09:40 | 40.31993 | 3.39852 | 16786 ft | 386 kts | 181° |
| 2026-05-04 09:40 | 40.29352 | 3.40032 | 16260 ft | 382 kts | 181° |
| 2026-05-04 09:40 | 40.26710 | 3.40200 | 15746 ft | 379 kts | 181° |
| 2026-05-04 09:41 | 40.24085 | 3.40357 | 15240 ft | 375 kts | 181° |
| 2026-05-04 09:42 | 40.07080 | 3.41341 | 13504 ft | 315 kts | 181° |
| 2026-05-04 09:43 | 40.04926 | 3.41465 | 13364 ft | 305 kts | 181° |
| 2026-05-04 09:43 | 40.02834 | 3.41585 | 13179 ft | 298 kts | 181° |
| 2026-05-04 09:43 | 40.00746 | 3.41702 | 12734 ft | 300 kts | 181° |
| 2026-05-04 09:43 | 39.98688 | 3.41816 | 12404 ft | 298 kts | 181° |
| 2026-05-04 09:44 | 39.96595 | 3.41933 | 12072 ft | 297 kts | 181° |
| 2026-05-04 09:44 | 39.94562 | 3.42047 | 11755 ft | 295 kts | 180° |
| 2026-05-04 09:44 | 39.92517 | 3.42162 | 11444 ft | 293 kts | 180° |
| 2026-05-04 09:46 | 39.78684 | 3.42939 | 9598 ft | 271 kts | 180° |
| 2026-05-04 09:46 | 39.76806 | 3.43044 | 9323 ft | 269 kts | 180° |
| 2026-05-04 09:46 | 39.74943 | 3.43148 | 9038 ft | 267 kts | 180° |
| 2026-05-04 09:47 | 39.73089 | 3.43225 | 8754 ft | 264 kts | 186° |
| 2026-05-04 09:47 | 39.71386 | 3.42583 | 8479 ft | 258 kts | 212° |
| 2026-05-04 09:49 | 39.68120 | 3.27648 | 6565 ft | 251 kts | 261° |
| 2026-05-04 09:49 | 39.67894 | 3.25406 | 6296 ft | 250 kts | 261° |
| 2026-05-04 09:49 | 39.67664 | 3.23166 | 6032 ft | 251 kts | 260° |
| 2026-05-04 09:51 | 39.66278 | 3.09856 | 4672 ft | 234 kts | 261° |
| 2026-05-04 09:51 | 39.66061 | 3.07793 | 4559 ft | 226 kts | 260° |
| 2026-05-04 09:51 | 39.65855 | 3.05829 | 4459 ft | 218 kts | 260° |
| 2026-05-04 09:51 | 39.65652 | 3.03911 | 4333 ft | 213 kts | 260° |
| 2026-05-04 09:52 | 39.65447 | 3.01986 | 4098 ft | 215 kts | 260° |
| 2026-05-04 09:52 | 39.65242 | 3.00060 | 3887 ft | 215 kts | 260° |
| 2026-05-04 09:52 | 39.65038 | 2.98138 | 3653 ft | 215 kts | 259° |
| 2026-05-04 09:52 | 39.64827 | 2.96210 | 3396 ft | 216 kts | 258° |
| 2026-05-04 09:53 | 39.64236 | 2.94456 | 3170 ft | 212 kts | 234° |
| 2026-05-04 09:53 | 39.63422 | 2.92862 | 2930 ft | 212 kts | 237° |
| 2026-05-04 09:53 | 39.62656 | 2.91249 | 2689 ft | 207 kts | 237° |
| 2026-05-04 09:53 | 39.61923 | 2.89691 | 2426 ft | 200 kts | 237° |
| 2026-05-04 09:54 | 39.61215 | 2.88193 | 2150 ft | 189 kts | 237° |
| 2026-05-04 09:54 | 39.60544 | 2.86775 | 1936 ft | 180 kts | 238° |
| 2026-05-04 09:54 | 39.59899 | 2.85410 | 1670 ft | 175 kts | 237° |
| 2026-05-04 09:54 | 39.59280 | 2.84095 | 1469 ft | 167 kts | 238° |
| 2026-05-04 09:55 | 39.58668 | 2.82801 | 1204 ft | 165 kts | 237° |
| 2026-05-04 09:55 | 39.58089 | 2.81579 | 987 ft | 155 kts | 238° |
| 2026-05-04 09:55 | 39.57531 | 2.80395 | 785 ft | 155 kts | 238° |
| 2026-05-04 09:55 | 39.56974 | 2.79218 | 587 ft | 151 kts | 239° |
| 2026-05-04 09:56 | 39.56442 | 2.78078 | 400 ft | 148 kts | 239° |
| 2026-05-04 09:56 | 39.55915 | 2.76942 | 206 ft | 146 kts | 239° |
| 2026-05-04 09:56 | 39.55388 | 2.75834 | 33 ft | 141 kts | 239° |
| 2026-05-04 09:56 | 39.54925 | 2.74859 | 29 ft | 112 kts | 238° |
| 2026-05-04 09:57 | 39.54644 | 2.74272 | 29 ft | 42 kts | 238° |
| 2026-05-04 09:57 | 39.54552 | 2.73930 | 29 ft | 39 kts | 268° |
| 2026-05-04 09:57 | 39.54552 | 2.73822 | 29 ft | 0 kts | 270° |
| 2026-05-04 09:58 | 39.54552 | 2.73797 | 29 ft | 7 kts | 270° |
| 2026-05-04 09:58 | 39.54560 | 2.73714 | 29 ft | 11 kts | 290° |
| 2026-05-04 09:58 | 39.54602 | 2.73639 | 29 ft | 10 kts | 317° |
| 2026-05-04 10:00 | 39.54650 | 2.73441 | 29 ft | 0 kts | 254° |